createdAt,value
2023-02-24T00:04:52.638Z,98444.28
2023-02-24T00:09:56.887Z,98442.50
2023-02-24T00:14:59.953Z,98442.78
2023-02-24T00:20:05.634Z,98435.03
2023-02-24T00:25:12.274Z,98431.78
2023-02-24T00:30:16.446Z,98430.94
2023-02-24T00:35:19.883Z,98431.69
2023-02-24T00:40:25.069Z,98433.50
2023-02-24T00:45:30.923Z,98431.69
2023-02-24T00:50:33.975Z,98425.41
2023-02-24T00:55:38.460Z,98418.28
2023-02-24T01:00:43.498Z,98420.22
2023-02-24T01:05:46.495Z,98419.78
2023-02-24T01:11:19.178Z,98415.03
2023-02-24T01:16:22.483Z,98409.63
2023-02-24T01:21:25.529Z,98412.50
2023-02-24T01:26:30.917Z,98402.66
2023-02-24T01:31:33.926Z,98398.19
2023-02-24T01:36:36.854Z,98398.41
2023-02-24T01:41:43.807Z,98397.63
2023-02-24T01:46:49.680Z,98382.75
2023-02-24T01:51:57.374Z,98376.63
2023-02-24T01:57:01.787Z,98370.66
2023-02-24T02:02:08.962Z,98360.41
2023-02-24T02:07:13.742Z,98361.22
2023-02-24T02:12:18.069Z,98351.75
2023-02-24T02:17:30.435Z,98347.50
2023-02-24T02:23:06.692Z,98344.75
2023-02-24T02:28:45.460Z,98343.97
2023-02-24T02:34:13.861Z,98335.00
2023-02-24T02:39:27.337Z,98334.97
2023-02-24T02:44:39.754Z,98341.56
2023-02-24T02:49:48.965Z,98326.25
2023-02-24T02:54:57.708Z,98322.16
2023-02-24T03:00:12.334Z,98322.66
2023-02-24T03:05:21.474Z,98316.91
2023-02-24T03:10:28.881Z,98319.44
2023-02-24T03:15:34.185Z,98313.16
2023-02-24T03:20:43.023Z,98308.94
2023-02-24T03:25:53.361Z,98318.72
2023-02-24T03:31:05.063Z,98314.16
2023-02-24T03:36:09.946Z,98307.91
2023-02-24T03:41:13.527Z,98311.88
2023-02-24T03:46:17.996Z,98316.72
2023-02-24T03:51:24.332Z,98310.59
2023-02-24T03:56:40.472Z,98314.22
2023-02-24T04:01:57.929Z,98320.00
2023-02-24T04:07:12.997Z,98312.63
2023-02-24T04:12:20.885Z,98307.81
2023-02-24T04:17:33.175Z,98300.19
2023-02-24T04:22:41.521Z,98288.75
2023-02-24T04:27:47.318Z,98289.97
2023-02-24T04:32:53.422Z,98283.38
2023-02-24T04:37:58.306Z,98270.34
2023-02-24T04:43:03.083Z,98260.72
2023-02-24T04:48:12.107Z,98258.50
2023-02-24T04:53:18.102Z,98251.69
2023-02-24T04:58:22.592Z,98247.47
2023-02-24T05:03:28.492Z,98243.06
2023-02-24T05:08:34.161Z,98237.63
2023-02-24T05:13:37.694Z,98230.06
2023-02-24T05:18:42.667Z,98235.25
2023-02-24T05:23:47.938Z,98225.63
2023-02-24T05:28:52.290Z,98223.50
2023-02-24T05:33:59.191Z,98227.13
2023-02-24T05:39:07.443Z,98231.38
2023-02-24T05:44:15.836Z,98226.19
2023-02-24T05:49:23.432Z,98221.56
2023-02-24T05:54:30.667Z,98225.16
2023-02-24T05:59:34.459Z,98228.38
2023-02-24T06:04:46.532Z,98226.19
2023-02-24T06:09:54.046Z,98225.94
2023-02-24T06:14:58.101Z,98224.53
2023-02-24T06:20:00.988Z,98227.06
2023-02-24T06:25:06.666Z,98234.09
2023-02-24T06:30:11.555Z,98237.88
2023-02-24T06:35:14.567Z,98241.72
2023-02-24T06:40:19.940Z,98239.28
2023-02-24T06:45:24.221Z,98242.91
2023-02-24T06:50:27.167Z,98226.38
2023-02-24T06:55:35.543Z,98220.34
2023-02-24T07:00:39.153Z,98227.84
2023-02-24T07:05:49.304Z,98222.22
2023-02-24T07:10:58.296Z,98235.97
2023-02-24T07:16:06.847Z,98235.91
2023-02-24T07:21:11.652Z,98230.72
2023-02-24T07:26:18.451Z,98224.56
2023-02-24T07:31:24.265Z,98221.16
2023-02-24T07:36:30.289Z,98216.06
2023-02-24T07:41:37.113Z,98217.97
2023-02-24T07:46:40.774Z,98209.59
2023-02-24T07:51:43.806Z,98210.34
2023-02-24T07:56:56.252Z,98208.47
2023-02-24T08:02:00.632Z,98193.69
2023-02-24T08:07:05.242Z,98191.44
2023-02-24T08:12:09.765Z,98183.66
2023-02-24T08:17:19.842Z,98173.00
2023-02-24T08:22:24.202Z,98169.06
2023-02-24T08:27:30.674Z,98155.19
2023-02-24T08:32:37.213Z,98156.06
2023-02-24T08:37:40.666Z,98139.53
2023-02-24T08:42:45.094Z,98142.53
2023-02-24T08:47:48.582Z,98144.94
2023-02-24T08:52:51.686Z,98141.72
2023-02-24T08:57:56.318Z,98131.53
2023-02-24T09:02:59.200Z,98126.50
2023-02-24T09:08:02.259Z,98117.78
2023-02-24T09:13:08.688Z,98100.97
2023-02-24T09:18:14.373Z,98098.19
2023-02-24T09:23:20.944Z,98092.19
2023-02-24T09:28:26.857Z,98085.97
2023-02-24T09:33:39.106Z,98076.41
2023-02-24T09:39:02.359Z,98054.22
2023-02-24T09:44:18.713Z,98030.59
2023-02-24T09:49:25.245Z,98018.16
2023-02-24T09:54:32.835Z,98014.09
2023-02-24T10:00:01.432Z,98009.00
2023-02-24T10:05:38.615Z,98011.44
2023-02-24T10:11:00.889Z,98001.00
2023-02-24T10:16:10.570Z,97998.25
2023-02-24T10:21:30.583Z,97977.19
2023-02-24T10:26:51.265Z,97961.78
2023-02-24T10:32:23.647Z,97953.72
2023-02-24T10:37:29.533Z,97934.75
2023-02-24T10:42:34.492Z,97928.66
2023-02-24T10:47:44.383Z,97910.91
2023-02-24T10:53:11.287Z,97911.06
2023-02-24T10:58:27.840Z,97900.72
2023-02-24T11:03:42.022Z,97881.72
2023-02-24T11:08:54.640Z,97877.19
2023-02-24T11:14:16.918Z,97861.44
2023-02-24T11:19:21.674Z,97855.56
2023-02-24T11:24:24.900Z,97833.22
2023-02-24T11:29:42.171Z,97816.78
2023-02-24T11:34:53.817Z,97802.63
2023-02-24T11:40:01.609Z,97802.25
2023-02-24T11:45:13.865Z,97786.13
2023-02-24T11:50:32.063Z,97775.47
2023-02-24T11:55:42.501Z,97760.75
2023-02-24T12:01:07.526Z,97764.13
2023-02-24T12:06:18.395Z,97747.97
2023-02-24T12:11:30.430Z,97747.72
2023-02-24T12:16:38.447Z,97739.25
2023-02-24T12:21:46.076Z,97725.94
2023-02-24T12:26:59.510Z,97719.81
2023-02-24T12:32:11.382Z,97712.00
2023-02-24T12:37:40.378Z,97702.22
2023-02-24T12:42:52.258Z,97693.59
2023-02-24T12:48:06.442Z,97687.47
2023-02-24T12:53:21.696Z,97680.28
2023-02-24T12:58:29.933Z,97665.81
2023-02-24T13:03:46.245Z,97650.59
2023-02-24T13:08:59.487Z,97639.41
2023-02-24T13:14:09.559Z,97637.69
2023-02-24T13:19:21.510Z,97628.16
2023-02-24T13:24:26.549Z,97630.06
2023-02-24T13:29:29.568Z,97614.56
2023-02-24T13:34:35.028Z,97609.25
2023-02-24T13:39:41.964Z,97604.94
2023-02-24T13:44:50.099Z,97590.75
2023-02-24T13:50:04.762Z,97585.44
2023-02-24T13:55:22.410Z,97574.44
2023-02-24T14:00:32.698Z,97572.19
2023-02-24T14:05:37.171Z,97564.91
2023-02-24T14:10:46.819Z,97553.72
2023-02-24T14:15:50.094Z,97560.16
2023-02-24T14:20:54.515Z,97555.50
2023-02-24T14:26:00.863Z,97550.63
2023-02-24T14:31:08.130Z,97551.94
2023-02-24T14:36:17.644Z,97544.78
2023-02-24T14:41:24.801Z,97538.88
2023-02-24T14:46:27.855Z,97523.69
2023-02-24T14:51:35.677Z,97520.72
2023-02-24T14:56:41.539Z,97515.53
2023-02-24T15:01:48.695Z,97509.78
2023-02-24T15:06:51.768Z,97507.50
2023-02-24T15:11:56.894Z,97495.28
2023-02-24T15:17:02.331Z,97486.44
2023-02-24T15:22:05.956Z,97481.25
2023-02-24T15:27:27.053Z,97462.22
2023-02-24T15:32:35.377Z,97450.78
2023-02-24T15:37:42.688Z,97464.09
2023-02-24T15:42:53.255Z,97451.66
2023-02-24T15:47:57.820Z,97447.13
2023-02-24T15:53:04.873Z,97452.31
2023-02-24T15:58:17.167Z,97439.31
2023-02-24T16:03:20.616Z,97438.78
2023-02-24T16:08:23.633Z,97444.53
2023-02-24T16:13:28.560Z,97435.22
2023-02-24T16:18:31.569Z,97429.84
2023-02-24T16:23:40.285Z,97423.00
2023-02-24T16:28:45.227Z,97429.22
2023-02-24T16:33:54.562Z,97433.97
2023-02-24T16:38:58.771Z,97423.53
2023-02-24T16:44:03.902Z,97418.78
2023-02-24T16:49:11.769Z,97424.31
2023-02-24T16:54:14.748Z,97421.59
2023-02-24T16:59:19.262Z,97423.28
2023-02-24T17:04:22.712Z,97419.97
2023-02-24T17:09:28.691Z,97410.66
2023-02-24T17:14:32.999Z,97408.78
2023-02-24T17:19:35.987Z,97404.66
2023-02-24T17:24:39.148Z,97401.59
2023-02-24T17:29:43.600Z,97397.13
2023-02-24T17:34:46.681Z,97390.66
2023-02-24T17:39:50.127Z,97393.53
2023-02-24T17:44:54.484Z,97389.75
2023-02-24T17:49:57.462Z,97384.69
2023-02-24T17:55:01.216Z,97370.72
2023-02-24T18:00:07.862Z,97374.03
2023-02-24T18:05:16.704Z,97363.28
2023-02-24T18:10:20.070Z,97363.19
2023-02-24T18:15:25.621Z,97354.72
2023-02-24T18:20:29.740Z,97354.84
2023-02-24T18:25:36.139Z,97359.06
2023-02-24T18:30:41.058Z,97354.72
2023-02-24T18:35:44.470Z,97348.31
2023-02-24T18:40:47.359Z,97336.31
2023-02-24T18:45:56.797Z,97340.19
2023-02-24T18:51:01.558Z,97339.97
2023-02-24T18:56:06.711Z,97333.03
2023-02-24T19:01:15.910Z,97322.94
2023-02-24T19:06:21.542Z,97324.63
2023-02-24T19:11:25.775Z,97326.66
2023-02-24T19:16:30.858Z,97316.03
2023-02-24T19:21:34.526Z,97302.28
2023-02-24T19:26:38.662Z,97296.88
2023-02-24T19:31:43.062Z,97300.38
2023-02-24T19:36:46.924Z,97298.78
2023-02-24T19:41:50.220Z,97285.53
2023-02-24T19:46:55.306Z,97280.38
2023-02-24T19:51:59.212Z,97278.94
2023-02-24T19:57:02.188Z,97271.19
2023-02-24T20:02:06.798Z,97267.75
2023-02-24T20:07:09.957Z,97279.91
2023-02-24T20:12:13.106Z,97268.59
2023-02-24T20:17:18.340Z,97273.94
2023-02-24T20:22:21.653Z,97264.22
2023-02-24T20:27:24.647Z,97268.91
2023-02-24T20:32:29.483Z,97260.81
2023-02-24T20:37:32.575Z,97251.91
2023-02-24T20:42:35.834Z,97246.53
2023-02-24T20:47:40.519Z,97246.91
2023-02-24T20:52:43.753Z,97242.94
2023-02-24T20:57:47.042Z,97231.63
2023-02-24T21:02:51.931Z,97229.41
2023-02-24T21:07:55.303Z,97227.06
2023-02-24T21:12:58.396Z,97219.00
2023-02-24T21:18:02.872Z,97214.28
2023-02-24T21:23:09.534Z,97210.22
2023-02-24T21:28:12.485Z,97190.72
2023-02-24T21:33:18.680Z,97182.03
2023-02-24T21:38:21.598Z,97178.81
2023-02-24T21:43:26.760Z,97175.59
2023-02-24T21:48:31.209Z,97171.94
2023-02-24T21:53:35.622Z,97175.59
2023-02-24T21:58:40.366Z,97185.09
2023-02-24T22:03:46.016Z,97165.59
2023-02-24T22:08:48.964Z,97170.56
2023-02-24T22:13:51.881Z,97178.91
2023-02-24T22:18:56.777Z,97163.09
2023-02-24T22:24:01.080Z,97144.19
2023-02-24T22:29:04.975Z,97147.53
2023-02-24T22:34:09.310Z,97152.59
2023-02-24T22:39:16.402Z,97161.22
2023-02-24T22:44:21.096Z,97147.25
2023-02-24T22:49:25.311Z,97147.78
2023-02-24T22:54:28.164Z,97135.09
2023-02-24T22:59:31.149Z,97134.56
2023-02-24T23:04:35.448Z,97136.84
2023-02-24T23:09:38.370Z,97139.06
2023-02-24T23:14:41.281Z,97130.66
2023-02-24T23:19:46.622Z,97136.31
2023-02-24T23:24:50.863Z,97139.09
2023-02-24T23:29:53.695Z,97129.50
2023-02-24T23:34:57.950Z,97135.25
2023-02-24T23:40:00.889Z,97136.25
2023-02-24T23:45:04.467Z,97142.28
2023-02-24T23:50:10.312Z,97140.63
2023-02-24T23:55:13.746Z,97143.41
